Time;durP1;ratioP1;P1;durP2;ratioP2;P2;SDS_P1;SDS_P2;PMS_P1;PMS_P2;Temp;Humidity;BMP_temperature;BMP_pressure;BME280_temperature;BME280_humidity;BME280_pressure;Samples;Min_cycle;Max_cycle;Signal;HPM_P1;HPM_P2
2022/12/02 00:02:13;;;;;;;;;;;;;;;;;;4933623;29;7530;-69
2022/12/02 00:04:38;;;;;;;;;;;;;;;;;;4933832;29;7578;-67
2022/12/02 00:07:03;;;;;;;;;;;;;;;;;;4939039;29;7527;-69
2022/12/02 00:09:29;;;;;;;;;;;;;;;;;;4936158;29;7539;-67
2022/12/02 00:11:54;;;;;;;;;;;;;;;;;;4933768;29;7523;-68
2022/12/02 00:14:19;;;;;;;;;;;;;;;;;;4933184;29;7605;-68
2022/12/02 00:16:44;;;;;;;;;;;;;;;;;;4933732;29;7553;-68
2022/12/02 00:19:10;;;;;;;;;;;;;;;;;;4933382;29;7543;-67
2022/12/02 00:21:35;;;;;;;;;;;;;;;;;;4933371;29;7523;-68
2022/12/02 00:24:00;;;;;;;;;;;;;;;;;;4933297;29;7555;-68
2022/12/02 00:26:25;;;;;;;;;;;;;;;;;;4933630;29;7991;-67
2022/12/02 00:28:50;;;;;;;;;;;;;;;;;;4933304;29;7539;-68
2022/12/02 00:31:15;;;;;;;;;;;;;;;;;;4933054;29;7987;-67
2022/12/02 00:33:41;;;;;;;;;;;;;;;;;;4931984;29;7550;-67
2022/12/02 00:36:06;;;;;;;;;;;;;;;;;;4932412;29;8042;-68
2022/12/02 00:38:31;;;;;;;;;;;;;;;;;;4933125;29;7539;-68
2022/12/02 00:40:56;;;;;;;;;;;;;;;;;;4933260;29;7533;-68
2022/12/02 00:48:49;;;;;;;;;;;;;;;;;;4936308;29;7519;-67
2022/12/02 00:51:14;;;;;;;;;;;;;;;;;;4936727;29;7597;-67
2022/12/02 00:53:39;;;;;;;;;;;;;;;;;;4936261;29;7531;-67
2022/12/02 00:56:04;;;;;;;;;;;;;;;;;;4936455;29;7538;-67
2022/12/02 00:58:29;;;;;;;;;;;;;;;;;;4936104;29;7983;-68
2022/12/02 01:00:55;;;;;;;;;;;;;;;;;;4935046;29;7512;-68
2022/12/02 01:03:20;;;;;;;;;;;;;;;;;;4934824;29;7542;-68
2022/12/02 01:05:45;;;;;;;;;;;;;;;;;;4936296;29;7523;-67
2022/12/02 01:08:10;;;;;;;;;;;;;;;;;;4935872;29;7566;-67
2022/12/02 01:10:35;;;;;;;;;;;;;;;;;;4936065;29;7526;-67
2022/12/02 01:13:00;;;;;;;;;;;;;;;;;;4935951;29;7515;-68
2022/12/02 01:15:25;;;;;;;;;;;;;;;;;;4936112;29;7519;-67
2022/12/02 01:17:50;;;;;;;;;;;;;;;;;;4936445;29;7582;-67
2022/12/02 01:20:16;;;;;;;;;;;;;;;;;;4934751;29;8041;-67
2022/12/02 01:22:41;;;;;;;;;;;;;;;;;;4935970;29;7553;-67
2022/12/02 01:25:06;;;;;;;;;;;;;;;;;;4935552;29;7539;-68
2022/12/02 01:27:31;;;;;;;;;;;;;;;;;;4935977;29;7543;-67
2022/12/02 01:29:56;;;;;;;;;;;;;;;;;;4935951;29;7966;-67
2022/12/02 01:32:22;;;;;;;;;;;;;;;;;;4935961;29;7613;-68
2022/12/02 01:34:47;;;;;;;;;;;;;;;;;;4935943;29;7519;-68
2022/12/02 01:37:12;;;;;;;;;;;;;;;;;;4935739;29;7531;-68
2022/12/02 01:39:37;;;;;;;;;;;;;;;;;;4935515;29;7546;-68
2022/12/02 01:42:03;;;;;;;;;;;;;;;;;;4935320;29;7527;-67
2022/12/02 01:44:28;;;;;;;;;;;;;;;;;;4934056;29;7617;-67
2022/12/02 01:46:53;;;;;;;;;;;;;;;;;;4935619;29;7537;-69
2022/12/02 01:49:18;;;;;;;;;;;;;;;;;;4935555;29;7515;-68
2022/12/02 01:51:43;;;;;;;;;;;;;;;;;;4935481;29;7578;-69
2022/12/02 01:54:08;;;;;;;;;;;;;;;;;;4935298;29;7530;-68
2022/12/02 01:56:34;;;;;;;;;;;;;;;;;;4935277;29;7577;-68
2022/12/02 01:58:59;;;;;;;;;;;;;;;;;;4934967;29;7924;-68
2022/12/02 02:01:24;;;;;;;;;;;;;;;;;;4934846;29;7542;-68
2022/12/02 02:03:49;;;;;;;;;;;;;;;;;;4935193;29;7531;-68
2022/12/02 02:06:14;;;;;;;;;;;;;;;;;;4935138;29;7527;-67
2022/12/02 02:08:39;;;;;;;;;;;;;;;;;;4934854;29;7545;-68
2022/12/02 02:11:05;;;;;;;;;;;;;;;;;;4933574;29;7522;-68
2022/12/02 02:13:30;;;;;;;;;;;;;;;;;;4934811;29;7543;-68
2022/12/02 02:15:58;;;;;;;;;;;;;;;;;;4935367;29;7574;-68
2022/12/02 02:18:23;;;;;;;;;;;;;;;;;;4934989;29;7537;-67
2022/12/02 02:20:48;;;;;;;;;;;;;;;;;;4934358;29;7531;-67
2022/12/02 02:23:13;;;;;;;;;;;;;;;;;;4941079;29;7598;-67
2022/12/02 02:25:38;;;;;;;;;;;;;;;;;;4934788;29;7533;-68
2022/12/02 02:28:04;;;;;;;;;;;;;;;;;;4934753;29;7530;-69
2022/12/02 02:30:29;;;;;;;;;;;;;;;;;;4934977;29;7979;-66
2022/12/02 02:32:54;;;;;;;;;;;;;;;;;;4934790;29;7531;-67
2022/12/02 02:35:19;;;;;;;;;;;;;;;;;;4934785;29;7519;-68
2022/12/02 02:37:44;;;;;;;;;;;;;;;;;;4934867;29;7527;-68
2022/12/02 02:40:09;;;;;;;;;;;;;;;;;;4934125;29;7534;-68
2022/12/02 02:42:34;;;;;;;;;;;;;;;;;;4934623;29;7523;-68
2022/12/02 02:45:00;;;;;;;;;;;;;;;;;;4933090;29;7539;-68
2022/12/02 02:47:25;;;;;;;;;;;;;;;;;;4934461;29;7527;-68
2022/12/02 02:49:50;;;;;;;;;;;;;;;;;;4934619;29;7963;-67
2022/12/02 02:52:15;;;;;;;;;;;;;;;;;;4934464;29;7986;-68
2022/12/02 02:54:41;;;;;;;;;;;;;;;;;;4934130;29;7542;-68
2022/12/02 02:57:06;;;;;;;;;;;;;;;;;;4934130;29;7531;-68
2022/12/02 02:59:31;;;;;;;;;;;;;;;;;;4934035;29;7547;-69
2022/12/02 03:01:56;;;;;;;;;;;;;;;;;;4934400;29;7535;-68
2022/12/02 03:04:21;;;;;;;;;;;;;;;;;;4934061;29;7526;-68
2022/12/02 03:06:46;;;;;;;;;;;;;;;;;;4933955;29;7534;-68
2022/12/02 03:09:11;;;;;;;;;;;;;;;;;;4933549;29;7547;-68
2022/12/02 03:11:37;;;;;;;;;;;;;;;;;;4933977;29;7982;-68
2022/12/02 03:14:02;;;;;;;;;;;;;;;;;;4933921;29;8011;-67
2022/12/02 03:16:27;;;;;;;;;;;;;;;;;;4934108;29;7617;-68
2022/12/02 03:18:52;;;;;;;;;;;;;;;;;;4933941;29;7543;-68
2022/12/02 03:21:17;;;;;;;;;;;;;;;;;;4934060;29;7534;-67
2022/12/02 03:23:42;;;;;;;;;;;;;;;;;;4933844;29;7538;-67
2022/12/02 03:26:07;;;;;;;;;;;;;;;;;;4932754;29;7526;-67
2022/12/02 03:28:32;;;;;;;;;;;;;;;;;;4933914;29;7535;-68
2022/12/02 03:30:58;;;;;;;;;;;;;;;;;;4933729;29;7558;-68
2022/12/02 03:33:23;;;;;;;;;;;;;;;;;;4933627;29;7535;-68
2022/12/02 03:35:48;;;;;;;;;;;;;;;;;;4933428;29;7527;-68
2022/12/02 03:38:13;;;;;;;;;;;;;;;;;;4932485;29;7637;-68
2022/12/02 03:40:38;;;;;;;;;;;;;;;;;;4931933;29;7670;-67
2022/12/02 03:43:03;;;;;;;;;;;;;;;;;;4933670;29;7545;-66
2022/12/02 03:45:29;;;;;;;;;;;;;;;;;;4933550;29;7578;-67
2022/12/02 03:47:54;;;;;;;;;;;;;;;;;;4933741;29;7531;-68
2022/12/02 03:50:19;;;;;;;;;;;;;;;;;;4932994;29;7617;-67
2022/12/02 03:52:44;;;;;;;;;;;;;;;;;;4933422;29;7553;-67
2022/12/02 03:55:09;;;;;;;;;;;;;;;;;;4933273;29;7537;-68
2022/12/02 03:57:34;;;;;;;;;;;;;;;;;;4933184;29;7983;-69
2022/12/02 03:59:59;;;;;;;;;;;;;;;;;;4933441;29;7530;-68
2022/12/02 04:02:25;;;;;;;;;;;;;;;;;;4933419;29;7649;-67
2022/12/02 04:04:50;;;;;;;;;;;;;;;;;;4933402;29;7975;-67
2022/12/02 04:07:15;;;;;;;;;;;;;;;;;;4933120;29;7519;-68
2022/12/02 04:09:40;;;;;;;;;;;;;;;;;;4933114;29;7539;-72
2022/12/02 04:12:05;;;;;;;;;;;;;;;;;;4933185;29;7606;-67
2022/12/02 04:14:30;;;;;;;;;;;;;;;;;;4932963;29;7538;-67
2022/12/02 04:16:56;;;;;;;;;;;;;;;;;;4932281;29;7523;-67
2022/12/02 04:19:21;;;;;;;;;;;;;;;;;;4933225;29;7543;-67
2022/12/02 04:21:46;;;;;;;;;;;;;;;;;;4936909;29;7515;-68
2022/12/02 04:24:11;;;;;;;;;;;;;;;;;;4934962;29;7519;-67
2022/12/02 04:26:36;;;;;;;;;;;;;;;;;;4936793;29;7542;-68
2022/12/02 04:29:01;;;;;;;;;;;;;;;;;;4936951;29;7969;-68
2022/12/02 04:31:26;;;;;;;;;;;;;;;;;;4934617;29;7523;-68
2022/12/02 04:33:52;;;;;;;;;;;;;;;;;;4927169;29;8066;-68
2022/12/02 04:36:17;;;;;;;;;;;;;;;;;;4926673;29;7531;-68
2022/12/02 04:38:42;;;;;;;;;;;;;;;;;;4932803;29;7936;-68
2022/12/02 04:41:07;;;;;;;;;;;;;;;;;;4926208;29;7530;-68
2022/12/02 04:43:32;;;;;;;;;;;;;;;;;;4924782;29;8029;-68
2022/12/02 04:45:57;;;;;;;;;;;;;;;;;;4924746;29;7542;-68
2022/12/02 04:48:22;;;;;;;;;;;;;;;;;;4925891;29;7519;-68
2022/12/02 04:50:47;;;;;;;;;;;;;;;;;;4940765;29;7531;-68
2022/12/02 04:53:13;;;;;;;;;;;;;;;;;;4927126;29;7526;-69
2022/12/02 04:55:38;;;;;;;;;;;;;;;;;;4923966;29;7980;-69
2022/12/02 04:58:03;;;;;;;;;;;;;;;;;;4924871;29;7549;-67
2022/12/02 05:00:28;;;;;;;;;;;;;;;;;;4925180;29;7543;-69
2022/12/02 05:02:53;;;;;;;;;;;;;;;;;;4926688;29;7605;-69
2022/12/02 05:05:18;;;;;;;;;;;;;;;;;;4924655;29;7527;-68
2022/12/02 05:07:43;;;;;;;;;;;;;;;;;;4925534;29;7526;-68
2022/12/02 05:10:08;;;;;;;;;;;;;;;;;;4938385;29;7530;-67
2022/12/02 05:12:33;;;;;;;;;;;;;;;;;;4926355;29;7542;-68
2022/12/02 05:14:59;;;;;;;;;;;;;;;;;;4924441;29;8023;-68
2022/12/02 05:17:24;;;;;;;;;;;;;;;;;;4924128;29;7521;-68
2022/12/02 05:19:49;;;;;;;;;;;;;;;;;;4925920;29;7565;-69
2022/12/02 05:22:14;;;;;;;;;;;;;;;;;;4925245;29;8058;-69
2022/12/02 05:24:39;;;;;;;;;;;;;;;;;;4924368;29;7538;-68
2022/12/02 05:27:05;;;;;;;;;;;;;;;;;;4925499;29;7614;-69
2022/12/02 05:29:30;;;;;;;;;;;;;;;;;;4940593;29;7747;-69
2022/12/02 05:31:55;;;;;;;;;;;;;;;;;;4945715;28;7527;-69
2022/12/02 05:34:20;;;;;;;;;;;;;;;;;;4923280;29;7535;-69
2022/12/02 05:36:45;;;;;;;;;;;;;;;;;;4921586;29;7539;-68
2022/12/02 05:39:10;;;;;;;;;;;;;;;;;;4925663;29;7563;-69
2022/12/02 05:41:37;;;;;;;;;;;;;;;;;;4923723;29;7630;-69
2022/12/02 05:44:02;;;;;;;;;;;;;;;;;;4926107;29;7575;-68
2022/12/02 05:46:27;;;;;;;;;;;;;;;;;;4924890;29;7539;-71
2022/12/02 05:48:52;;;;;;;;;;;;;;;;;;4924537;29;7537;-69
2022/12/02 05:51:17;;;;;;;;;;;;;;;;;;4925845;29;7531;-70
2022/12/02 05:53:43;;;;;;;;;;;;;;;;;;4925482;29;7527;-71
2022/12/02 05:56:08;;;;;;;;;;;;;;;;;;4924735;29;7530;-70
2022/12/02 05:58:33;;;;;;;;;;;;;;;;;;4925598;29;7995;-70
2022/12/02 06:00:58;;;;;;;;;;;;;;;;;;4924470;29;7576;-70
2022/12/02 06:03:23;;;;;;;;;;;;;;;;;;4935326;29;7535;-69
2022/12/02 06:05:48;;;;;;;;;;;;;;;;;;4923841;29;7550;-69
2022/12/02 06:08:14;;;;;;;;;;;;;;;;;;4916703;29;7535;-69
2022/12/02 06:10:39;;;;;;;;;;;;;;;;;;4931329;29;7537;-70
2022/12/02 06:13:04;;;;;;;;;;;;;;;;;;4930854;29;7584;-70
2022/12/02 06:15:29;;;;;;;;;;;;;;;;;;4916867;29;7554;-73
2022/12/02 06:17:55;;;;;;;;;;;;;;;;;;4916880;29;7539;-69
2022/12/02 06:20:20;;;;;;;;;;;;;;;;;;4916385;29;7523;-69
2022/12/02 06:22:45;;;;;;;;;;;;;;;;;;4927323;29;7527;-71
2022/12/02 06:25:10;;;;;;;;;;;;;;;;;;4935339;29;7523;-73
2022/12/02 06:27:35;;;;;;;;;;;;;;;;;;4935154;29;7523;-70
2022/12/02 06:30:00;;;;;;;;;;;;;;;;;;4935445;29;7534;-71
2022/12/02 06:32:25;;;;;;;;;;;;;;;;;;4935003;29;7531;-71
2022/12/02 06:34:53;;;;;;;;;;;;;;;;;;4935669;29;7543;-69
2022/12/02 06:37:19;;;;;;;;;;;;;;;;;;4933964;29;7534;-69
2022/12/02 06:39:44;;;;;;;;;;;;;;;;;;4935098;29;7549;-70
2022/12/02 06:42:09;;;;;;;;;;;;;;;;;;4930910;29;7546;-70
2022/12/02 06:47:18;;;;;;;;;;;;;;;;;;4934779;29;7526;-69
2022/12/02 06:49:43;;;;;;;;;;;;;;;;;;4933341;29;7546;-69
2022/12/02 06:52:08;;;;;;;;;;;;;;;;;;4931741;29;7523;-68
2022/12/02 06:54:33;;;;;;;;;;;;;;;;;;4917835;29;7538;-69
2022/12/02 06:56:58;;;;;;;;;;;;;;;;;;4915275;29;7538;-70
2022/12/02 06:59:24;;;;;;;;;;;;;;;;;;4915119;29;7539;-69
2022/12/02 07:01:49;;;;;;;;;;;;;;;;;;4915113;29;7986;-71
2022/12/02 07:04:14;;;;;;;;;;;;;;;;;;4915068;29;7535;-69
2022/12/02 07:06:39;;;;;;;;;;;;;;;;;;4915281;29;7523;-69
2022/12/02 07:09:04;;;;;;;;;;;;;;;;;;4921452;29;7523;-69
2022/12/02 07:14:13;;;;;;;;;;;;;;;;;;4915362;29;7531;-68
2022/12/02 07:16:38;;;;;;;;;;;;;;;;;;4915761;29;7534;-69
2022/12/02 07:19:03;;;;;;;;;;;;;;;;;;4915341;29;7528;-70
2022/12/02 07:21:28;;;;;;;;;;;;;;;;;;4928880;29;7531;-70
2022/12/02 07:23:54;;;;;;;;;;;;;;;;;;4932367;29;7623;-70
2022/12/02 07:26:19;;;;;;;;;;;;;;;;;;4933279;29;7538;-69
2022/12/02 07:28:44;;;;;;;;;;;;;;;;;;4933977;29;7535;-69
2022/12/02 07:31:09;;;;;;;;;;;;;;;;;;4933681;29;7526;-70
2022/12/02 07:33:34;;;;;;;;;;;;;;;;;;4932719;29;7530;-69
2022/12/02 07:35:59;;;;;;;;;;;;;;;;;;4933788;29;7527;-69
2022/12/02 07:38:24;;;;;;;;;;;;;;;;;;4933693;29;7608;-68
2022/12/02 07:40:50;;;;;;;;;;;;;;;;;;4925127;29;7530;-69
2022/12/02 07:43:15;;;;;;;;;;;;;;;;;;4938469;29;7602;-68
2022/12/02 07:45:42;;;;;;;;;;;;;;;;;;4920563;29;7679;-69
2022/12/02 07:48:08;;;;;;;;;;;;;;;;;;4921837;29;7519;-68
2022/12/02 07:50:33;;;;;;;;;;;;;;;;;;4922962;29;7537;-68
2022/12/02 07:52:58;;;;;;;;;;;;;;;;;;4923667;29;7519;-69
2022/12/02 07:55:23;;;;;;;;;;;;;;;;;;4938358;28;7535;-69
2022/12/02 07:57:48;;;;;;;;;;;;;;;;;;4924612;29;7594;-68
2022/12/02 08:00:14;;;;;;;;;;;;;;;;;;4958613;28;7530;-69
2022/12/02 08:02:39;;;;;;;;;;;;;;;;;;4952454;29;7541;-69
2022/12/02 08:05:04;;;;;;;;;;;;;;;;;;4940744;29;7527;-69
2022/12/02 08:07:29;;;;;;;;;;;;;;;;;;4932018;29;7515;-69
2022/12/02 08:09:54;;;;;;;;;;;;;;;;;;4932792;29;7535;-69
2022/12/02 08:12:20;;;;;;;;;;;;;;;;;;4933346;29;7603;-69
2022/12/02 08:14:45;;;;;;;;;;;;;;;;;;4933796;29;7527;-70
2022/12/02 08:17:10;;;;;;;;;;;;;;;;;;4933909;29;8122;-71
2022/12/02 08:19:35;;;;;;;;;;;;;;;;;;4933406;29;7535;-69
2022/12/02 08:22:00;;;;;;;;;;;;;;;;;;4933229;29;7617;-70
2022/12/02 08:24:25;;;;;;;;;;;;;;;;;;4927356;29;7538;-69
2022/12/02 08:26:50;;;;;;;;;;;;;;;;;;4919617;29;7539;-72
2022/12/02 08:29:16;;;;;;;;;;;;;;;;;;4941035;29;7526;-73
2022/12/02 08:31:41;;;;;;;;;;;;;;;;;;4947092;29;7535;-73
2022/12/02 08:34:06;;;;;;;;;;;;;;;;;;4944576;29;7519;-72
2022/12/02 08:36:33;;;;;;;;;;;;;;;;;;4937833;29;7534;-71
2022/12/02 08:38:58;;;;;;;;;;;;;;;;;;4932864;29;7619;-71
2022/12/02 08:41:23;;;;;;;;;;;;;;;;;;4935009;29;7656;-69
2022/12/02 08:43:48;;;;;;;;;;;;;;;;;;4923373;29;7633;-69
2022/12/02 08:46:14;;;;;;;;;;;;;;;;;;4921769;29;7534;-70
2022/12/02 08:48:39;;;;;;;;;;;;;;;;;;4923205;29;7551;-69
2022/12/02 08:51:04;;;;;;;;;;;;;;;;;;4919516;29;7542;-68
2022/12/02 08:53:29;;;;;;;;;;;;;;;;;;4924490;29;7525;-68
2022/12/02 08:55:54;;;;;;;;;;;;;;;;;;4921997;29;7531;-69
2022/12/02 08:58:19;;;;;;;;;;;;;;;;;;4920195;29;7551;-69
2022/12/02 09:00:44;;;;;;;;;;;;;;;;;;4921784;29;7530;-70
2022/12/02 09:03:09;;;;;;;;;;;;;;;;;;4919566;29;7626;-70
2022/12/02 09:05:35;;;;;;;;;;;;;;;;;;4923238;29;7523;-69
2022/12/02 09:08:00;;;;;;;;;;;;;;;;;;4928979;29;7523;-70
2022/12/02 09:10:25;;;;;;;;;;;;;;;;;;4927014;29;7535;-68
2022/12/02 09:12:52;;;;;;;;;;;;;;;;;;4919220;29;7519;-68
2022/12/02 09:15:17;;;;;;;;;;;;;;;;;;4917257;29;7570;-69
2022/12/02 09:17:42;;;;;;;;;;;;;;;;;;4923825;29;7617;-78
2022/12/02 09:20:08;;;;;;;;;;;;;;;;;;4917712;29;8883;-75
2022/12/02 09:22:33;;;;;;;;;;;;;;;;;;4932952;29;7523;-73
2022/12/02 09:24:58;;;;;;;;;;;;;;;;;;4933983;29;7642;-76
2022/12/02 09:27:23;;;;;;;;;;;;;;;;;;4936336;29;7556;-75
2022/12/02 09:29:48;;;;;;;;;;;;;;;;;;4936055;29;8001;-75
2022/12/02 09:32:14;;;;;;;;;;;;;;;;;;4936253;29;7527;-75
2022/12/02 09:34:39;;;;;;;;;;;;;;;;;;4934816;29;7522;-79
2022/12/02 09:37:04;;;;;;;;;;;;;;;;;;4935144;29;7523;-75
2022/12/02 09:39:29;;;;;;;;;;;;;;;;;;4935115;29;7531;-75
2022/12/02 09:41:54;;;;;;;;;;;;;;;;;;4934453;29;7542;-76
2022/12/02 09:44:20;;;;;;;;;;;;;;;;;;4927728;29;7543;-72
2022/12/02 09:46:45;;;;;;;;;;;;;;;;;;4932140;29;7991;-74
2022/12/02 09:49:10;;;;;;;;;;;;;;;;;;4934962;29;7527;-74
2022/12/02 09:51:35;;;;;;;;;;;;;;;;;;4934699;29;7526;-74
2022/12/02 09:54:00;;;;;;;;;;;;;;;;;;4934477;29;7995;-73
2022/12/02 09:56:25;;;;;;;;;;;;;;;;;;4935136;29;7515;-74
2022/12/02 09:58:50;;;;;;;;;;;;;;;;;;4935255;29;7979;-74
2022/12/02 10:01:16;;;;;;;;;;;;;;;;;;4934731;29;7552;-74
2022/12/02 10:03:41;;;;;;;;;;;;;;;;;;4934330;29;7539;-74
2022/12/02 10:06:06;;;;;;;;;;;;;;;;;;4934926;29;7523;-73
2022/12/02 10:08:33;;;;;;;;;27.50;24.75;;;;;;;;4932863;29;7552;-72
2022/12/02 10:10:59;;;;;;;;;36.33;31.67;;;;;;;;4929260;29;13549;-71
2022/12/02 10:13:24;;;;;;;;;34.00;31.00;;;;;;;;4932164;29;8813;-73
2022/12/02 10:15:50;;;;;;;;;33.67;27.67;;;;;;;;4932164;29;8901;-72
2022/12/02 10:18:15;;;;;;;;;;;;;;;;;;4949707;28;9603;-71
2022/12/02 10:20:41;;;;;;;;;33.00;27.00;;;;;;;;4932617;29;7523;-72
2022/12/02 10:23:12;;;;;;;;;32.33;30.33;;;;;;;;4931852;29;8958;-73
2022/12/02 10:25:40;;;;;;;;;34.00;30.33;;;;;;;;4932481;29;8962;-72
2022/12/02 10:28:17;;;;;;;;;32.33;25.00;;;;;;;;4932375;29;11626;-74
2022/12/02 10:30:48;;;;;;;;;34.33;27.00;;;;;;;;4932513;29;11594;-72
2022/12/02 10:33:13;;;;;;;;;32.33;28.00;;;;;;;;4932294;29;11685;-75
2022/12/02 10:35:42;;;;;;;;;31.00;28.33;;;;;;;;4930576;29;8960;-73
2022/12/02 10:38:26;;;;;;;;;28.00;23.00;;;;;;;;4913547;29;8843;-74
2022/12/02 10:40:51;;;;;;;;;30.00;28.00;;;;;;;;4912159;29;11680;-75
2022/12/02 10:43:19;;;;;;;;;27.33;25.00;;;;;;;;4911562;29;11636;-75
2022/12/02 10:45:57;;;;;;;;;34.67;27.67;;;;;;;;4911697;29;8823;-73
2022/12/02 10:48:22;;;;;;;;;31.33;26.67;;;;;;;;4911263;29;11654;-74
2022/12/02 10:50:47;;;;;;;;;40.00;30.00;;;;;;;;4911393;29;11619;-75
2022/12/02 10:53:14;;;;;;;;;26.67;24.33;;;;;;;;4939317;29;8870;-73
2022/12/02 10:55:40;;;;;;;;;28.00;26.67;;;;;;;;4931992;29;8815;-73
2022/12/02 10:58:07;;;;;;;;;34.33;28.00;;;;;;;;4931587;29;11725;-71
2022/12/02 11:00:32;;;;;;;;;40.33;31.67;;;;;;;;4930761;29;8836;-69
2022/12/02 11:02:59;;;;;;;;;36.00;31.00;;;;;;;;4931736;29;9496;-72
2022/12/02 11:05:24;;;;;;;;;35.67;34.00;;;;;;;;4930997;29;8821;-71
2022/12/02 11:08:08;;;;;;;;;33.00;30.00;;;;;;;;4931386;29;8802;-71
2022/12/02 11:10:37;;;;;;;;;30.33;27.00;;;;;;;;4931838;29;8833;-72
2022/12/02 11:13:11;;;;;;;;;26.33;24.00;;;;;;;;4925823;29;11618;-72
2022/12/02 11:15:50;;;;;;;;;33.00;27.67;;;;;;;;4924161;29;11597;-73
2022/12/02 11:18:21;;;;;;;;;34.33;28.67;;;;;;;;4931896;29;8832;-73
2022/12/02 11:20:46;;;;;;;;;28.67;27.00;;;;;;;;4928560;29;8825;-72
2022/12/02 11:23:19;;;;;;;;;24.33;24.33;;;;;;;;4933205;29;11716;-73
2022/12/02 11:25:48;;;;;;;;;28.00;26.33;;;;;;;;4946383;29;8841;-73
2022/12/02 11:28:16;;;;;;;;;36.00;31.00;;;;;;;;4931276;29;11626;-73
2022/12/02 11:30:41;;;;;;;;;44.33;33.33;;;;;;;;4931059;29;8833;-73
2022/12/02 11:33:10;;;;;;;;;36.33;34.00;;;;;;;;4929501;29;9173;-75
2022/12/02 11:35:54;;;;;;;;;41.00;35.33;;;;;;;;4930938;29;8805;-72
2022/12/02 11:38:22;;;;;;;;;42.33;36.67;;;;;;;;4930731;29;9047;-71
2022/12/02 11:40:48;;;;;;;;;41.00;36.33;;;;;;;;4930551;29;8997;-70
2022/12/02 11:43:32;;;;;;;;;40.67;35.00;;;;;;;;4929746;29;9016;-71
2022/12/02 11:45:58;;;;;;;;;44.67;39.33;;;;;;;;4930999;29;8828;-74
2022/12/02 11:48:23;;;;;;;;;44.67;41.67;;;;;;;;4931507;29;9021;-70
2022/12/02 11:50:48;;;;;;;;;48.33;44.00;;;;;;;;4930824;29;8941;-71
2022/12/02 11:53:14;;;;;;;;;49.67;43.33;;;;;;;;4929308;29;8856;-76
2022/12/02 11:55:40;;;;;;;;;51.00;41.33;;;;;;;;4930894;29;8948;-74
2022/12/02 11:58:21;;;;;;;;;54.00;42.67;;;;;;;;4931125;29;8860;-73
2022/12/02 12:01:00;;;;;;;;;40.00;40.00;;;;;;;;4930970;29;8839;-71
2022/12/02 12:03:26;;;;;;;;;53.67;40.33;;;;;;;;4929240;29;8927;-70
2022/12/02 12:06:06;;;;;;;;;51.67;44.33;;;;;;;;4930557;29;8995;-70
2022/12/02 12:08:31;;;;;;;;;47.67;41.33;;;;;;;;4930131;29;8860;-70
2022/12/02 12:11:15;;;;;;;;;46.33;39.67;;;;;;;;4928035;29;8861;-69
2022/12/02 12:13:59;;;;;;;;;48.67;43.00;;;;;;;;4929285;29;8857;-70
2022/12/02 12:16:25;;;;;;;;;59.00;45.00;;;;;;;;4930989;29;8911;-69
2022/12/02 12:18:51;;;;;;;;;53.00;44.00;;;;;;;;4931381;29;8840;-69
2022/12/02 12:21:31;;;;;;;;;48.00;39.67;;;;;;;;4928960;29;8818;-69
2022/12/02 12:24:25;;;;;;;;;54.33;44.33;;;;;;;;4911780;29;8799;-69
2022/12/02 12:26:54;;;;;;;;;54.33;46.33;;;;;;;;4910095;29;8841;-69
2022/12/02 12:29:21;;;;;;;;;61.00;46.00;;;;;;;;4912232;29;8973;-75
2022/12/02 12:31:47;;;;;;;;;50.67;41.33;;;;;;;;4939947;29;8835;-74
2022/12/02 12:34:15;;;;;;;;;41.67;38.67;;;;;;;;4945769;29;8826;-72
2022/12/02 12:36:41;;;;;;;;;52.33;43.00;;;;;;;;4930841;29;8832;-76
2022/12/02 12:39:08;;;;;;;;;47.33;41.33;;;;;;;;4929063;29;8850;-75
2022/12/02 12:41:33;;;;;;;;;49.67;43.00;;;;;;;;4930536;29;8980;-72
2022/12/02 12:43:58;;;;;;;;;46.00;43.00;;;;;;;;4934184;29;8919;-71
2022/12/02 12:46:24;;;;;;;;;45.33;40.67;;;;;;;;4933784;29;8831;-71
2022/12/02 12:48:49;;;;;;;;;49.33;43.00;;;;;;;;4933978;29;8860;-74
2022/12/02 12:51:14;;;;;;;;;47.67;42.00;;;;;;;;4932808;29;8809;-73
2022/12/02 12:53:39;;;;;;;;;41.67;39.33;;;;;;;;4933935;29;8937;-76
2022/12/02 12:56:05;;;;;;;;;46.33;40.00;;;;;;;;4934013;29;8808;-74
2022/12/02 12:58:30;;;;;;;;;46.67;43.00;;;;;;;;4934215;29;8864;-74
2022/12/02 13:00:56;;;;;;;;;52.00;43.33;;;;;;;;4934556;29;8802;-72
2022/12/02 13:03:21;;;;;;;;;51.33;41.00;;;;;;;;4933297;29;8835;-74
2022/12/02 13:05:46;;;;;;;;;48.00;41.67;;;;;;;;4933791;29;8846;-71
2022/12/02 13:08:12;;;;;;;;;51.33;42.00;;;;;;;;4937986;28;10334;-78
2022/12/02 13:10:37;;;;;;;;;46.00;39.67;;;;;;;;4953121;28;8844;-77
2022/12/02 13:13:03;;;;;;;;;42.33;39.33;;;;;;;;4951069;28;10215;-75
2022/12/02 13:15:28;;;;;;;;;47.67;38.00;;;;;;;;4953072;28;8820;-74
2022/12/02 13:17:53;;;;;;;;;47.67;43.00;;;;;;;;4950232;28;8889;-74
2022/12/02 13:20:19;;;;;;;;;48.67;42.00;;;;;;;;4950217;28;8997;-74
2022/12/02 13:22:45;;;;;;;;;46.67;42.00;;;;;;;;4950773;28;8834;-74
2022/12/02 13:25:11;;;;;;;;;50.67;40.00;;;;;;;;4952393;28;8940;-74
2022/12/02 13:27:36;;;;;;;;;49.33;43.00;;;;;;;;4952622;28;9598;-74
2022/12/02 13:30:01;;;;;;;;;47.67;42.00;;;;;;;;4952531;28;8882;-74
2022/12/02 13:32:27;;;;;;;;;49.00;45.00;;;;;;;;4951251;28;8834;-77
2022/12/02 13:34:52;;;;;;;;;62.67;48.33;;;;;;;;4957263;28;8885;-76
2022/12/02 13:37:17;;;;;;;;;42.67;41.33;;;;;;;;4958949;28;8814;-74
2022/12/02 13:39:42;;;;;;;;;42.33;40.00;;;;;;;;4955474;28;8826;-75
2022/12/02 13:42:08;;;;;;;;;48.00;42.00;;;;;;;;4952830;28;8917;-75
2022/12/02 13:44:35;;;;;;;;;62.33;45.33;;;;;;;;4951489;28;8842;-74
2022/12/02 13:47:00;;;;;;;;;54.00;47.33;;;;;;;;4951168;28;8818;-74
2022/12/02 13:49:25;;;;;;;;;66.00;51.67;;;;;;;;4952253;28;8810;-74
2022/12/02 13:51:50;;;;;;;;;57.00;49.67;;;;;;;;4951917;28;9561;-73
2022/12/02 13:54:16;;;;;;;;;57.67;47.67;;;;;;;;4952439;28;8811;-76
2022/12/02 13:56:41;;;;;;;;;49.33;44.00;;;;;;;;4952261;28;9575;-68
2022/12/02 13:59:06;;;;;;;;;59.33;48.33;;;;;;;;4949165;28;8878;-70
2022/12/02 14:01:32;;;;;;;;;54.33;46.33;;;;;;;;4956283;28;8840;-72
2022/12/02 14:03:57;;;;;;;;;53.67;46.67;;;;;;;;4933279;29;9002;-73
2022/12/02 14:06:22;;;;;;;;;44.67;43.00;;;;;;;;4932912;29;8911;-73
2022/12/02 14:08:47;;;;;;;;;48.00;43.00;;;;;;;;4937880;28;8823;-72
2022/12/02 14:11:13;;;;;;;;;55.67;44.67;;;;;;;;4951793;28;8973;-73
2022/12/02 14:13:38;;;;;;;;;37.67;35.33;;;;;;;;4951988;28;8929;-70
2022/12/02 14:16:03;;;;;;;;;64.67;48.00;;;;;;;;4951472;28;8908;-70
2022/12/02 14:18:29;;;;;;;;;57.67;51.33;;;;;;;;4951308;28;8854;-69
2022/12/02 14:20:54;;;;;;;;;56.67;47.00;;;;;;;;4951626;28;8941;-69
2022/12/02 14:23:20;;;;;;;;;48.00;38.33;;;;;;;;4949840;28;8811;-70
2022/12/02 14:25:46;;;;;;;;;57.33;46.67;;;;;;;;4964562;28;8869;-73
2022/12/02 14:28:11;;;;;;;;;54.33;45.00;;;;;;;;4950255;28;8819;-71
2022/12/02 14:30:36;;;;;;;;;52.67;46.67;;;;;;;;4951640;28;8796;-72
2022/12/02 14:33:01;;;;;;;;;48.67;41.67;;;;;;;;4951489;28;8934;-70
2022/12/02 14:35:27;;;;;;;;;52.67;44.67;;;;;;;;4951805;28;8804;-70
2022/12/02 14:37:52;;;;;;;;;44.67;38.33;;;;;;;;4951832;28;9523;-69
2022/12/02 14:40:17;;;;;;;;;49.33;42.00;;;;;;;;4951741;28;8886;-69
2022/12/02 14:42:42;;;;;;;;;52.67;45.00;;;;;;;;4951671;28;8820;-68
2022/12/02 14:45:08;;;;;;;;;52.00;45.00;;;;;;;;4951934;28;8807;-69
2022/12/02 14:47:36;;;;;;;;;51.33;42.67;;;;;;;;4951434;28;8850;-69
2022/12/02 14:50:01;;;;;;;;;64.00;49.00;;;;;;;;4951793;28;9984;-69
2022/12/02 14:52:26;;;;;;;;;61.33;47.33;;;;;;;;4951722;28;8871;-68
2022/12/02 14:54:52;;;;;;;;;66.67;47.33;;;;;;;;4964930;28;8835;-72
2022/12/02 14:57:17;;;;;;;;;63.67;50.33;;;;;;;;4950042;28;8830;-70
2022/12/02 14:59:43;;;;;;;;;56.00;43.33;;;;;;;;4951009;28;8902;-70
2022/12/02 15:02:09;;;;;;;;;58.33;46.00;;;;;;;;4951076;28;9638;-69
2022/12/02 15:04:34;;;;;;;;;64.00;47.33;;;;;;;;4950517;28;8800;-69
2022/12/02 15:06:59;;;;;;;;;44.00;39.33;;;;;;;;4950886;28;8822;-70
2022/12/02 15:09:25;;;;;;;;;60.00;50.00;;;;;;;;4951476;28;8969;-70
2022/12/02 15:11:50;;;;;;;;;66.67;53.33;;;;;;;;4951079;28;8824;-70
2022/12/02 15:14:16;;;;;;;;;57.67;44.67;;;;;;;;4949870;28;9585;-69
2022/12/02 15:16:42;;;;;;;;;66.00;52.00;;;;;;;;4950769;28;8868;-71
2022/12/02 15:19:08;;;;;;;;;62.67;48.67;;;;;;;;4951038;28;8858;-70
2022/12/02 15:21:33;;;;;;;;;68.33;52.67;;;;;;;;4965599;28;8815;-69
2022/12/02 15:23:58;;;;;;;;;64.33;50.67;;;;;;;;4950974;28;9029;-70
2022/12/02 15:26:23;;;;;;;;;69.33;53.00;;;;;;;;4950439;28;8845;-70
2022/12/02 15:28:49;;;;;;;;;63.33;50.00;;;;;;;;4950934;28;8835;-71
2022/12/02 15:31:17;;;;;;;;;60.67;48.33;;;;;;;;4950680;28;8810;-71
2022/12/02 15:33:42;;;;;;;;;59.00;49.67;;;;;;;;4951213;28;8981;-70
2022/12/02 15:36:08;;;;;;;;;67.67;50.67;;;;;;;;4950197;28;8887;-73
2022/12/02 15:38:33;;;;;;;;;64.67;53.00;;;;;;;;4959358;28;8874;-72
2022/12/02 15:40:59;;;;;;;;;49.67;46.67;;;;;;;;4933616;28;8825;-72
2022/12/02 15:43:24;;;;;;;;;63.00;48.67;;;;;;;;4931436;29;8900;-71
2022/12/02 15:45:49;;;;;;;;;67.00;55.33;;;;;;;;4945541;29;8840;-72
2022/12/02 15:48:14;;;;;;;;;56.67;47.00;;;;;;;;4935025;28;8984;-70
2022/12/02 15:50:40;;;;;;;;;57.67;46.00;;;;;;;;4934270;29;8871;-68
2022/12/02 15:53:05;;;;;;;;;62.33;50.00;;;;;;;;4945083;28;8921;-71
2022/12/02 15:55:30;;;;;;;;;61.00;50.33;;;;;;;;4949552;28;8975;-69
2022/12/02 15:57:56;;;;;;;;;66.33;53.00;;;;;;;;4939619;28;8837;-72
2022/12/02 16:00:21;;;;;;;;;58.00;48.33;;;;;;;;4935858;28;8895;-69
2022/12/02 16:02:46;;;;;;;;;65.67;50.00;;;;;;;;4964375;28;8913;-73